Time;durP1;ratioP1;P1;durP2;ratioP2;P2;SDS_P1;SDS_P2;PMS_P1;PMS_P2;Temp;Humidity;BMP_temperature;BMP_pressure;BME280_temperature;BME280_humidity;BME280_pressure;Samples;Min_cycle;Max_cycle;Signal;HPM_P1;HPM_P2
2021/05/15 00:01:30;;;;;;;2.30;1.73;;;21.10;51.80;;;;;;4998574;28;20031;-57
2021/05/15 00:03:56;;;;;;;2.40;1.73;;;21.10;51.80;;;;;;4998547;28;20037;-54
2021/05/15 00:06:23;;;;;;;2.80;1.83;;;21.10;51.80;;;;;;4998746;28;20077;-53
2021/05/15 00:08:50;;;;;;;4.40;2.17;;;21.10;51.70;;;;;;4998271;28;20504;-57
2021/05/15 00:11:17;;;;;;;2.30;1.88;;;21.10;51.70;;;;;;4998216;28;20090;-57
2021/05/15 00:13:43;;;;;;;3.58;2.20;;;21.10;51.60;;;;;;4998072;28;20038;-58
2021/05/15 00:16:09;;;;;;;2.97;1.58;;;21.00;51.60;;;;;;4997902;28;20045;-55
2021/05/15 00:18:34;;;;;;;1.75;1.60;;;21.00;51.50;;;;;;4998684;28;20353;-58
2021/05/15 00:21:00;;;;;;;2.17;1.67;;;21.10;51.50;;;;;;4998341;28;20042;-54
2021/05/15 00:23:26;;;;;;;3.55;2.10;;;21.00;51.50;;;;;;4998312;28;20128;-54
2021/05/15 00:25:51;;;;;;;2.45;1.92;;;21.00;51.50;;;;;;4998061;28;20372;-50
2021/05/15 00:28:17;;;;;;;3.10;2.00;;;21.00;51.40;;;;;;4998270;28;20043;-53
2021/05/15 00:30:42;;;;;;;3.40;1.90;;;21.00;51.40;;;;;;4998035;28;20031;-54
2021/05/15 00:33:08;;;;;;;2.15;1.70;;;21.00;51.40;;;;;;4998074;28;20354;-52
2021/05/15 00:35:33;;;;;;;3.78;1.70;;;21.00;51.40;;;;;;4997818;28;20030;-55
2021/05/15 00:37:59;;;;;;;3.33;2.10;;;21.00;51.40;;;;;;4997823;28;20045;-57
2021/05/15 00:40:24;;;;;;;2.90;2.15;;;21.00;51.30;;;;;;4998032;28;20039;-56
2021/05/15 00:42:50;;;;;;;3.47;1.88;;;20.90;51.30;;;;;;4997795;28;20046;-55
2021/05/15 00:45:16;;;;;;;3.28;2.28;;;20.90;51.30;;;;;;4997828;28;20117;-56
2021/05/15 00:47:42;;;;;;;3.25;2.13;;;21.00;51.30;;;;;;4997717;28;20093;-52
2021/05/15 00:50:09;;;;;;;2.00;1.90;;;20.90;51.30;;;;;;4997683;28;20105;-53
2021/05/15 00:52:35;;;;;;;2.33;1.95;;;20.90;51.20;;;;;;4997882;28;20373;-56
2021/05/15 00:55:07;;;;;;;2.88;2.20;;;20.90;51.20;;;;;;4980842;28;20334;-54
2021/05/15 00:57:33;;;;;;;2.33;2.13;;;20.90;51.20;;;;;;4997603;28;20031;-54
2021/05/15 00:59:59;;;;;;;2.83;2.20;;;20.90;51.20;;;;;;4997629;28;20356;-55
2021/05/15 01:02:24;;;;;;;2.55;2.22;;;20.90;51.10;;;;;;4997680;28;20038;-56
2021/05/15 01:04:50;;;;;;;3.42;1.77;;;20.90;51.10;;;;;;4997895;28;20488;-57
2021/05/15 01:07:15;;;;;;;3.53;2.00;;;20.90;51.10;;;;;;4997310;28;20038;-56
2021/05/15 01:09:41;;;;;;;2.35;2.15;;;20.90;51.10;;;;;;4996819;28;20114;-55
2021/05/15 01:12:08;;;;;;;1.98;1.77;;;20.90;51.10;;;;;;4997113;28;20129;-57
2021/05/15 01:14:35;;;;;;;3.80;2.28;;;20.90;51.10;;;;;;4996990;28;20516;-60
2021/05/15 01:17:02;;;;;;;2.65;2.20;;;20.90;51.00;;;;;;4997262;28;20372;-56
2021/05/15 01:19:27;;;;;;;3.40;2.40;;;20.90;51.00;;;;;;4997074;28;20150;-55
2021/05/15 01:21:53;;;;;;;2.58;2.10;;;20.90;51.00;;;;;;4996888;28;20557;-55
2021/05/15 01:24:19;;;;;;;3.08;2.20;;;20.90;51.00;;;;;;4996786;28;20488;-59
2021/05/15 01:26:45;;;;;;;4.25;2.75;;;20.90;51.00;;;;;;4996814;28;20138;-57
2021/05/15 01:29:10;;;;;;;2.33;1.98;;;20.80;50.90;;;;;;4997347;28;20373;-55
2021/05/15 01:31:38;;;;;;;2.60;2.10;;;20.90;51.00;;;;;;4997145;28;20039;-53
2021/05/15 01:34:04;;;;;;;2.60;2.10;;;20.90;51.00;;;;;;4997152;28;20046;-58
2021/05/15 01:36:34;;;;;;;2.30;2.10;;;20.80;50.90;;;;;;4997044;28;20041;-53
2021/05/15 01:38:59;;;;;;;2.50;2.15;;;20.80;50.90;;;;;;4997053;28;20441;-56
2021/05/15 01:41:25;;;;;;;2.53;2.33;;;20.80;50.90;;;;;;4996487;28;20117;-55
2021/05/15 01:43:50;;;;;;;2.13;1.92;;;20.80;50.90;;;;;;4996733;28;20037;-53
2021/05/15 01:46:16;;;;;;;2.38;2.17;;;20.80;50.90;;;;;;4996945;28;20462;-54
2021/05/15 01:48:42;;;;;;;2.45;2.03;;;20.80;50.90;;;;;;4996907;28;20346;-55
2021/05/15 01:51:11;;;;;;;3.13;2.40;;;20.80;50.80;;;;;;4996814;28;20042;-53
2021/05/15 01:53:42;;;;;;;2.33;2.03;;;20.80;50.80;;;;;;4996672;28;20437;-57
2021/05/15 01:56:10;;;;;;;1.90;1.70;;;20.80;50.90;;;;;;4996678;28;20090;-53
2021/05/15 01:58:37;;;;;;;2.65;2.38;;;20.80;50.80;;;;;;4996783;28;20030;-55
2021/05/15 02:01:04;;;;;;;2.85;2.28;;;20.80;50.80;;;;;;4996466;28;20045;-54
2021/05/15 02:27:50;;;;;;;3.10;2.08;;;20.60;50.60;;;;;;4993023;28;20854;-52
2021/05/15 02:30:17;;;;;;;2.08;1.83;;;20.60;50.60;;;;;;4976787;28;20137;-53
2021/05/15 02:32:43;;;;;;;4.20;2.13;;;20.60;50.70;;;;;;4976741;28;20101;-53
2021/05/15 02:35:09;;;;;;;2.60;2.05;;;20.60;50.70;;;;;;4976648;28;20434;-55
2021/05/15 02:37:34;;;;;;;2.22;2.03;;;20.60;50.70;;;;;;4976686;28;20139;-54
2021/05/15 02:40:00;;;;;;;2.17;1.98;;;20.60;50.70;;;;;;4976166;28;20460;-55
2021/05/15 02:42:26;;;;;;;2.30;1.88;;;20.60;50.70;;;;;;4976331;28;20042;-54
2021/05/15 02:44:52;;;;;;;2.72;2.03;;;20.60;50.60;;;;;;4976246;28;20035;-55
2021/05/15 02:47:22;;;;;;;2.30;2.10;;;20.60;50.70;;;;;;4976596;28;20052;-54
2021/05/15 02:49:48;;;;;;;2.33;2.13;;;20.60;50.60;;;;;;4976153;28;20027;-55
2021/05/15 02:52:14;;;;;;;3.90;2.50;;;20.60;50.60;;;;;;4975970;28;20362;-52
2021/05/15 02:54:40;;;;;;;2.00;1.85;;;20.60;50.60;;;;;;4975743;28;20043;-53
2021/05/15 02:57:06;;;;;;;2.72;2.25;;;20.60;50.60;;;;;;4975919;28;20476;-54
2021/05/15 02:59:32;;;;;;;2.08;1.75;;;20.60;50.60;;;;;;4976450;28;20043;-55
2021/05/15 03:01:58;;;;;;;2.65;1.63;;;20.60;50.50;;;;;;4976311;28;20174;-56
2021/05/15 03:04:24;;;;;;;2.13;1.92;;;20.60;50.50;;;;;;4976502;28;20121;-55
2021/05/15 03:06:49;;;;;;;2.40;2.20;;;20.60;50.50;;;;;;4976343;28;20035;-53
2021/05/15 03:09:15;;;;;;;1.83;1.73;;;20.60;50.50;;;;;;4976362;28;20453;-55
2021/05/15 03:11:40;;;;;;;2.22;2.03;;;20.60;50.50;;;;;;4959261;28;20118;-52
2021/05/15 03:14:06;;;;;;;2.17;2.00;;;20.60;50.50;;;;;;4976243;28;20097;-54
2021/05/15 03:16:32;;;;;;;2.20;2.10;;;20.50;50.50;;;;;;4976027;28;20035;-53
2021/05/15 03:18:58;;;;;;;2.55;2.25;;;20.60;50.50;;;;;;4975665;28;20464;-55
2021/05/15 03:21:23;;;;;;;2.35;2.15;;;20.60;50.50;;;;;;4975780;28;20034;-58
2021/05/15 03:23:49;;;;;;;2.42;2.05;;;20.60;50.50;;;;;;4975995;28;20113;-55
2021/05/15 03:26:14;;;;;;;2.60;2.40;;;20.60;50.50;;;;;;4975977;28;20038;-57
2021/05/15 03:28:40;;;;;;;3.33;2.30;;;20.60;50.50;;;;;;4982681;28;20136;-56
2021/05/15 03:31:06;;;;;;;2.17;2.00;;;20.50;50.40;;;;;;4995165;28;20038;-55
2021/05/15 03:33:31;;;;;;;2.65;2.25;;;20.50;50.40;;;;;;4996352;28;20460;-58
2021/05/15 03:35:57;;;;;;;2.72;2.22;;;20.50;50.40;;;;;;4999400;28;20113;-53
2021/05/15 03:38:22;;;;;;;3.05;2.38;;;20.50;50.40;;;;;;4998530;28;20105;-53
2021/05/15 03:40:48;;;;;;;2.28;2.08;;;20.50;50.40;;;;;;4998977;28;20039;-56
2021/05/15 03:43:14;;;;;;;2.92;2.35;;;20.50;50.40;;;;;;4999173;28;20038;-55
2021/05/15 03:45:39;;;;;;;2.60;2.28;;;20.60;50.40;;;;;;4999283;28;20039;-56
2021/05/15 03:48:05;;;;;;;2.72;2.15;;;20.50;50.40;;;;;;4999311;28;20034;-51
2021/05/15 03:50:31;;;;;;;2.42;2.25;;;20.50;50.40;;;;;;4999147;28;20038;-58
2021/05/15 03:52:56;;;;;;;3.25;2.47;;;20.50;50.30;;;;;;4998663;28;20049;-60
2021/05/15 03:55:22;;;;;;;2.25;2.05;;;20.50;50.30;;;;;;4998684;28;20507;-55
2021/05/15 03:57:47;;;;;;;2.60;2.33;;;20.50;50.30;;;;;;4999169;28;20030;-53
2021/05/15 04:00:13;;;;;;;2.42;1.95;;;20.50;50.40;;;;;;4998554;28;20042;-57
2021/05/15 04:02:39;;;;;;;3.97;2.33;;;20.50;50.40;;;;;;4998887;28;20109;-57
2021/05/15 04:05:06;;;;;;;2.38;2.17;;;20.50;50.40;;;;;;4998300;28;20073;-55
2021/05/15 04:07:31;;;;;;;2.40;2.17;;;20.50;50.40;;;;;;4998590;28;20026;-53
2021/05/15 04:09:57;;;;;;;2.53;2.30;;;20.50;50.40;;;;;;4998476;28;20373;-53
2021/05/15 04:12:24;;;;;;;2.67;2.47;;;20.50;50.40;;;;;;4998245;28;20042;-54
2021/05/15 04:15:02;;;;;;;2.35;2.15;;;20.50;50.40;;;;;;4998674;28;20038;-52
2021/05/15 04:17:29;;;;;;;2.42;2.22;;;20.50;50.30;;;;;;4993754;28;20034;-55
2021/05/15 04:19:56;;;;;;;3.00;2.40;;;20.50;50.40;;;;;;4994854;28;20450;-55
2021/05/15 04:22:21;;;;;;;2.50;2.30;;;20.50;50.40;;;;;;4986567;28;20558;-56
